EW7765 Weather Reports


Display with metric or nautical units.
time (UTC)temp
F
wind
direction
speed
MPH
gust
MPH
rain 1hr
in
rain 24hr
in
rain mn
in
humidity
%
barometer
mb
20190223164736 39 176 1.0 3.0 0.00 0.18 0.00 84 1019.2
20190223163106 39 158 0.0 5.0 0.00 0.18 0.00 86 1019.2
20190223161707 38 154 1.0 4.0 0.00 0.18 0.00 85 1019.1
20190223160044 38 161 0.0 3.0 0.00 0.18 0.00 87 1019.0
20190223154628 37 185 0.0 2.0 0.00 0.18 0.00 89 1018.8
20190223153050 37 198 0.0 0.0 0.00 0.18 0.00 90 1018.8
20190223151625 37 169 0.0 1.0 0.00 0.18 0.00 89 1018.7
20190223150023 37 169 0.0 2.0 0.00 0.18 0.00 88 1018.6
20190223144630 37 153 0.0 4.0 0.00 0.18 0.00 89 1018.6
20190223143005 37 152 1.0 3.0 0.00 0.18 0.00 88 1018.6
20190223141637 37 145 0.0 3.0 0.00 0.18 0.00 89 1018.6
20190223134532 37 167 0.0 4.0 0.00 0.18 0.00 89 1018.5
20190223133145 38 167 1.0 5.0 0.00 0.18 0.00 89 1018.4
20190223131538 38 138 0.0 4.0 0.00 0.18 0.00 89 1018.3
20190223130210 38 144 1.0 6.0 0.00 0.18 0.00 89 1018.2
20190223124531 38 147 0.0 4.0 0.00 0.18 0.00 89 1018.2
20190223123127 38 187 0.0 4.0 0.00 0.18 0.00 89 1018.0
20190223121550 38 185 0.0 3.0 0.00 0.18 0.00 89 1018.0
20190223120145 38 155 1.0 3.0 0.00 0.18 0.00 89 1018.0
20190223114537 38 201 0.0 3.0 0.00 0.18 0.00 89 1017.9
20190223113128 38 151 0.0 4.0 0.00 0.18 0.00 89 1017.8
20190223111514 38 142 0.0 4.0 0.00 0.18 0.00 89 1017.7
20190223110116 38 184 1.0 4.0 0.00 0.18 0.00 88 1017.7
20190223104509 38 139 0.0 6.0 0.00 0.18 0.00 89 1017.6
20190223103049 38 164 1.0 4.0 0.00 0.18 0.00 89 1017.6
20190223101505 38 186 1.0 5.0 0.00 0.18 0.00 88 1017.6
20190223100134 38 146 0.0 3.0 0.00 0.18 0.00 89 1017.5
20190223094740 38 207 0.0 2.0 0.00 0.18 0.00 91 1017.5
20190223093103 38 155 0.0 0.0 0.00 0.18 0.00 92 1017.3
20190223091652 38 194 0.0 1.0 0.00 0.18 0.00 91 1017.2
20190223090111 38 125 0.0 1.0 0.00 0.18 0.00 93 1017.0
20190223084639 38 134 0.0 2.0 0.00 0.18 0.00 93 1017.0
20190223083101 38 172 0.0 0.0 0.00 0.18 0.00 92 1016.9
20190223081617 38 165 0.0 1.0 0.00 0.18 0.00 92 1016.8
20190223074601 38 163 0.0 0.0 0.00 0.18 0.18 92 1016.5
20190223073002 38 150 0.0 2.0 0.00 0.18 0.18 92 1016.4
20190223071539 38 192 0.0 2.0 0.00 0.18 0.18 93 1016.2
20190223064555 36 202 0.0 1.0 0.00 0.18 0.18 94 1016.0
20190223063143 36 184 0.0 2.0 0.00 0.18 0.18 94 1015.8
20190223061553 36 205 0.0 0.0 0.00 0.18 0.18 93 1015.7
20190223060146 37 152 0.0 3.0 0.00 0.18 0.18 91 1015.5
20190223054539 38 207 2.0 5.0 0.00 0.18 0.18 91 1015.3
20190223053212 38 160 2.0 7.0 0.00 0.18 0.18 91 1015.4
20190223051521 38 201 1.0 4.0 0.00 0.18 0.18 93 1015.4
20190223050144 38 146 0.0 2.0 0.00 0.18 0.18 94 1015.3
20190223044521 38 206 0.0 2.0 0.00 0.18 0.18 94 1015.1
20190223043155 38 158 0.0 2.0 0.00 0.18 0.18 94 1015.0
20190223041522 38 174 1.0 2.0 0.00 0.18 0.18 95 1014.9
20190223040114 38 167 0.0 1.0 0.00 0.18 0.18 95 1014.8
20190223034503 38 167 0.0 2.0 0.00 0.18 0.18 95 1014.7
20190223033146 38 155 0.0 0.0 0.00 0.18 0.18 95 1014.7
20190223031505 38 159 0.0 1.0 0.00 0.18 0.18 95 1014.5
20190223030119 38 152 0.0 1.0 0.00 0.18 0.18 95 1014.3
20190223024705 38 168 0.0 1.0 0.00 0.18 0.18 95 1014.1
20190223023103 38 161 0.0 2.0 0.00 0.18 0.18 95 1014.0
20190223021632 38 159 0.0 2.0 0.00 0.18 0.18 95 1014.0
20190223020130 38 165 0.0 1.0 0.00 0.18 0.18 95 1013.9
20190223014645 38 165 0.0 1.0 0.00 0.18 0.18 95 1013.7
20190223013120 38 160 0.0 0.0 0.00 0.18 0.18 95 1013.7
20190223010030 39 160 0.0 0.0 0.00 0.18 0.18 94 1013.5
20190223004709 39 160 0.0 0.0 0.00 0.18 0.18 93 1013.6
20190223003104 39 192 0.0 3.0 0.00 0.18 0.18 93 1013.4
20190223001647 38 176 1.0 3.0 0.00 0.18 0.18 92 1013.3
20190223000014 38 177 0.0 5.0 0.02 0.18 0.18 93 1013.2
20190222234614 38 227 0.0 6.0 0.03 0.18 0.18 92 1013.1
20190222233047 38 151 1.0 4.0 0.05 0.18 0.18 93 1012.7
20190222231619 38 143 0.0 4.0 0.06 0.17 0.17 94 1012.5
20190222230003 37 198 0.0 3.0 0.07 0.16 0.16 94 1012.7
20190222224616 37 228 0.0 1.0 0.08 0.15 0.15 93 1012.7
20190222223034 37 200 0.0 1.0 0.06 0.13 0.13 92 1012.8
20190222221602 38 160 1.0 7.0 0.04 0.11 0.11 92 1012.7
20190222214551 38 128 4.0 12.0 0.02 0.07 0.07 92 1012.7
20190222213201 37 205 0.0 1.0 0.03 0.07 0.07 94 1012.8
20190222211602 37 207 0.0 1.0 0.05 0.07 0.07 91 1012.7
20190222210244 37 184 1.0 5.0 0.07 0.07 0.07 90 1012.4
20190222204523 37 212 3.0 9.0 0.05 0.05 0.05 89 1012.4
20190222203122 38 212 4.0 12.0 0.04 0.04 0.04 88 1012.5
20190222201622 39 174 5.0 13.0 0.02 0.02 0.02 82 1012.4
20190222200145 40 164 5.0 11.0 0.00 0.00 0.00 77 1012.5
20190222194515 41 132 3.0 13.0 0.00 0.00 0.00 76 1012.5
20190222193110 41 194 3.0 10.0 0.00 0.00 0.00 74 1012.4
20190222191524 41 160 4.0 11.0 0.00 0.00 0.00 72 1012.5
20190222190204 41 169 4.0 18.0 0.00 0.00 0.00 74 1012.7
20190222184505 41 203 5.0 15.0 0.00 0.00 0.00 74 1013.2
20190222183128 41 126 3.0 12.0 0.00 0.00 0.00 71 1013.2
20190222181509 41 174 4.0 12.0 0.00 0.00 0.00 70 1013.4
20190222180131 40 11 2.0 7.0 0.00 0.00 0.00 72 1013.5
20190222174719 40 139 2.0 6.0 0.00 0.00 0.00 72 1013.6
20190222173100 40 160 5.0 11.0 0.00 0.00 0.00 72 1013.9
20190222170106 38 190 1.0 8.0 0.00 0.00 0.00 78 1014.4